createdAt,value
2018-02-09T00:01:11.193Z,81.57
2018-02-09T00:03:39.448Z,79.15
2018-02-09T00:06:08.479Z,76.55
2018-02-09T00:08:36.734Z,71.87
2018-02-09T00:11:04.992Z,64.05
2018-02-09T00:13:34.017Z,62.42
2018-02-09T00:16:02.286Z,66.22
2018-02-09T00:18:30.536Z,62.05
2018-02-09T00:20:58.800Z,60.45
2018-02-09T00:23:27.934Z,56.03
2018-02-09T00:25:56.198Z,62.13
2018-02-09T00:28:24.450Z,65.10
2018-02-09T00:30:53.487Z,63.35
2018-02-09T00:33:21.752Z,63.90
2018-02-09T00:35:50.017Z,59.30
2018-02-09T00:38:18.278Z,61.80
2018-02-09T00:40:47.304Z,61.50
2018-02-09T00:43:15.553Z,66.10
2018-02-09T00:45:43.821Z,64.93
2018-02-09T00:48:12.846Z,67.28
2018-02-09T00:50:41.110Z,71.12
2018-02-09T00:53:09.368Z,73.32
2018-02-09T00:55:38.428Z,71.60
2018-02-09T00:58:06.655Z,69.30
2018-02-09T01:00:34.922Z,65.50
2018-02-09T01:03:03.187Z,59.17
2018-02-09T01:05:32.208Z,55.75
2018-02-09T01:08:00.476Z,62.15
2018-02-09T01:10:28.757Z,64.57
2018-02-09T01:12:57.010Z,65.18
2018-02-09T01:15:26.040Z,61.35
2018-02-09T01:17:54.289Z,59.03
2018-02-09T01:20:22.545Z,58.15
2018-02-09T01:22:51.570Z,65.55
2018-02-09T01:25:19.826Z,58.78
2018-02-09T01:27:48.085Z,53.10
2018-02-09T01:30:17.111Z,52.20
2018-02-09T01:32:45.381Z,58.58
2018-02-09T01:35:13.632Z,60.30
2018-02-09T01:37:42.666Z,62.40
2018-02-09T01:40:10.913Z,64.05
2018-02-09T01:42:39.186Z,58.33
2018-02-09T01:45:08.214Z,64.72
2018-02-09T01:47:36.483Z,69.05
2018-02-09T01:50:16.758Z,63.30
2018-02-09T01:52:45.019Z,54.08
2018-02-09T01:55:13.279Z,54.45
2018-02-09T01:57:41.532Z,51.33
2018-02-09T02:00:10.562Z,56.63
2018-02-09T02:02:38.822Z,61.42
2018-02-09T02:05:07.078Z,65.60
2018-02-09T02:07:36.135Z,60.30
2018-02-09T02:10:04.388Z,62.10
2018-02-09T02:12:32.667Z,66.50
2018-02-09T02:15:00.925Z,68.28
2018-02-09T02:17:29.184Z,72.68
2018-02-09T02:19:57.438Z,74.82
2018-02-09T02:22:25.704Z,72.60
2018-02-09T02:24:53.956Z,76.03
2018-02-09T02:27:22.230Z,74.78
2018-02-09T02:29:50.490Z,72.57
2018-02-09T02:32:18.748Z,74.50
2018-02-09T02:34:47.010Z,70.30
2018-02-09T02:37:15.278Z,65.30
2018-02-09T02:39:44.315Z,62.03
2018-02-09T02:42:12.682Z,57.40
2018-02-09T02:44:40.932Z,45.80
2018-02-09T02:47:09.193Z,43.47
2018-02-09T02:49:38.209Z,41.47
2018-02-09T02:52:06.513Z,45.90
2018-02-09T02:54:34.770Z,41.42
2018-02-09T02:57:03.018Z,42.92
2018-02-09T02:59:32.046Z,43.35
2018-02-09T03:02:00.297Z,42.05
2018-02-09T03:04:28.560Z,46.40
2018-02-09T03:06:57.578Z,45.20
2018-02-09T03:09:25.843Z,43.50
2018-02-09T03:11:54.862Z,40.55
2018-02-09T03:14:23.117Z,41.35
2018-02-09T03:16:51.367Z,45.22
2018-02-09T03:19:20.397Z,43.22
2018-02-09T03:21:48.642Z,46.70
2018-02-09T03:24:17.667Z,42.67
2018-02-09T03:26:45.916Z,45.40
2018-02-09T03:29:14.958Z,45.15
2018-02-09T03:31:43.211Z,44.40
2018-02-09T03:34:11.480Z,44.22
2018-02-09T03:36:39.745Z,45.38
2018-02-09T03:39:08.768Z,46.55
2018-02-09T03:41:37.026Z,49.15
2018-02-09T03:44:05.279Z,48.50
2018-02-09T03:46:34.315Z,49.72
2018-02-09T03:49:02.566Z,47.25
2018-02-09T03:51:30.822Z,47.55
2018-02-09T03:53:59.847Z,49.40
2018-02-09T03:56:28.116Z,47.50
2018-02-09T03:58:56.369Z,46.42
2018-02-09T04:01:25.399Z,47.22
2018-02-09T04:03:53.656Z,45.03
2018-02-09T04:06:21.929Z,47.20
2018-02-09T04:08:50.419Z,47.95
2018-02-09T04:11:18.700Z,50.17
2018-02-09T04:13:46.941Z,45.17
2018-02-09T04:16:15.980Z,44.13
2018-02-09T04:18:44.243Z,44.60
2018-02-09T04:21:12.505Z,41.00
2018-02-09T04:23:40.757Z,45.03
2018-02-09T04:26:09.793Z,43.70
2018-02-09T04:28:38.058Z,41.83
2018-02-09T04:31:06.322Z,44.45
2018-02-09T04:33:34.580Z,46.00
2018-02-09T04:36:03.596Z,47.00
2018-02-09T04:38:31.856Z,45.10
2018-02-09T04:41:00.883Z,45.97
2018-02-09T04:43:29.133Z,44.35
2018-02-09T04:45:57.395Z,44.60
2018-02-09T04:48:26.426Z,44.17
2018-02-09T04:50:54.685Z,46.85
2018-02-09T04:53:22.949Z,46.13
2018-02-09T04:55:51.980Z,45.10
2018-02-09T04:58:20.243Z,46.72
2018-02-09T05:00:48.490Z,43.25
2018-02-09T05:03:17.525Z,45.58
2018-02-09T05:05:45.787Z,45.83
2018-02-09T05:08:14.045Z,43.90
2018-02-09T05:10:42.297Z,43.67
2018-02-09T05:13:11.326Z,43.50
2018-02-09T05:15:39.580Z,44.17
2018-02-09T05:18:08.610Z,43.80
2018-02-09T05:20:36.874Z,46.83
2018-02-09T05:23:05.130Z,43.47
2018-02-09T05:25:33.470Z,44.47
2018-02-09T05:28:01.683Z,49.58
2018-02-09T05:30:29.937Z,43.53
2018-02-09T05:32:58.958Z,45.58
2018-02-09T05:35:27.222Z,42.90
2018-02-09T05:37:56.249Z,40.90
2018-02-09T05:40:24.509Z,40.58
2018-02-09T05:42:52.760Z,41.00
2018-02-09T05:45:21.795Z,37.45
2018-02-09T05:47:50.045Z,39.38
2018-02-09T05:50:18.314Z,39.85
2018-02-09T05:52:46.577Z,35.78
2018-02-09T05:55:15.602Z,38.22
2018-02-09T05:57:43.863Z,40.55
2018-02-09T06:00:12.126Z,39.40
2018-02-09T06:02:41.151Z,41.80
2018-02-09T06:05:09.409Z,50.78
2018-02-09T06:07:37.665Z,42.75
2018-02-09T06:10:06.681Z,45.15
2018-02-09T06:12:34.946Z,46.40
2018-02-09T06:15:03.201Z,45.45
2018-02-09T06:17:32.230Z,48.35
2018-02-09T06:20:00.490Z,44.45
2018-02-09T06:22:28.749Z,46.42
2018-02-09T06:24:57.771Z,46.72
2018-02-09T06:27:26.033Z,43.08
2018-02-09T06:29:54.288Z,49.75
2018-02-09T06:32:22.562Z,46.13
2018-02-09T06:34:52.324Z,46.92
2018-02-09T06:37:20.585Z,46.55
2018-02-09T06:39:48.846Z,48.40
2018-02-09T06:42:17.886Z,47.30
2018-02-09T06:44:46.146Z,45.83
2018-02-09T06:47:14.415Z,47.50
2018-02-09T06:49:42.673Z,46.90
2018-02-09T06:52:10.947Z,48.45
2018-02-09T06:54:39.203Z,50.12
2018-02-09T06:57:08.280Z,45.60
2018-02-09T06:59:36.535Z,47.80
2018-02-09T07:02:04.792Z,47.80
2018-02-09T07:04:33.057Z,52.70
2018-02-09T07:07:01.319Z,46.75
2018-02-09T07:09:29.586Z,46.60
2018-02-09T07:11:58.606Z,47.05
2018-02-09T07:14:26.874Z,50.40
2018-02-09T07:16:55.127Z,46.67
2018-02-09T07:19:24.156Z,43.17
2018-02-09T07:21:52.413Z,47.70
2018-02-09T07:24:20.685Z,47.90
2018-02-09T07:26:48.938Z,49.28
2018-02-09T07:29:17.986Z,46.03
2018-02-09T07:31:46.249Z,46.05
2018-02-09T07:34:14.513Z,43.42
2018-02-09T07:36:42.764Z,43.35
2018-02-09T07:39:11.811Z,43.20
2018-02-09T07:41:40.057Z,42.83
2018-02-09T07:44:08.376Z,40.25
2018-02-09T07:46:36.627Z,41.88
2018-02-09T07:49:04.897Z,44.35
2018-02-09T07:51:33.155Z,42.28
2018-02-09T07:54:01.423Z,45.45
2018-02-09T07:56:29.698Z,45.05
2018-02-09T07:58:57.966Z,47.47
2018-02-09T08:01:26.998Z,42.75
2018-02-09T08:03:55.258Z,46.60
2018-02-09T08:06:23.534Z,44.17
2018-02-09T08:08:52.493Z,46.67
2018-02-09T08:11:21.536Z,43.50
2018-02-09T08:13:49.794Z,47.15
2018-02-09T08:16:18.059Z,45.28
2018-02-09T08:18:46.325Z,46.58
2018-02-09T08:21:15.360Z,45.40
2018-02-09T08:23:43.603Z,45.22
2018-02-09T08:26:11.913Z,44.72
2018-02-09T08:28:40.182Z,46.37
2018-02-09T08:31:08.441Z,46.55
2018-02-09T08:33:36.707Z,43.65
2018-02-09T08:36:04.970Z,45.28
2018-02-09T08:38:34.106Z,47.45
2018-02-09T08:41:02.355Z,46.40
2018-02-09T08:43:30.619Z,49.33
2018-02-09T08:45:59.637Z,49.85
2018-02-09T08:48:27.924Z,49.75
2018-02-09T08:50:56.192Z,52.20
2018-02-09T08:53:24.509Z,51.05
2018-02-09T08:55:52.742Z,53.28
2018-02-09T08:58:21.014Z,52.83
2018-02-09T09:00:49.274Z,45.92
2018-02-09T09:03:17.556Z,48.35
2018-02-09T09:05:45.824Z,49.13
2018-02-09T09:08:14.862Z,49.17
2018-02-09T09:10:43.121Z,49.35
2018-02-09T09:13:11.394Z,49.22
2018-02-09T09:15:39.671Z,47.25
2018-02-09T09:18:07.950Z,46.60
2018-02-09T09:20:36.229Z,45.03
2018-02-09T09:23:04.484Z,46.17
2018-02-09T09:25:32.753Z,49.45
2018-02-09T09:28:01.013Z,45.22
2018-02-09T09:30:30.050Z,46.35
2018-02-09T09:32:58.314Z,46.25
2018-02-09T09:35:26.582Z,44.95
2018-02-09T09:37:54.847Z,48.35
2018-02-09T09:40:23.115Z,47.03
2018-02-09T09:42:52.148Z,49.88
2018-02-09T09:45:20.465Z,50.42
2018-02-09T09:47:48.737Z,49.47
2018-02-09T09:50:17.017Z,49.40
2018-02-09T09:52:45.282Z,50.25
2018-02-09T09:55:13.550Z,49.17
2018-02-09T09:57:41.815Z,50.50
2018-02-09T10:00:10.090Z,50.17
2018-02-09T10:02:40.958Z,49.13
2018-02-09T10:05:09.235Z,48.42
2018-02-09T10:07:37.497Z,48.53
2018-02-09T10:10:05.759Z,48.80
2018-02-09T10:12:34.030Z,49.65
2018-02-09T10:15:02.289Z,49.95
2018-02-09T10:17:30.579Z,53.58
2018-02-09T10:19:58.845Z,51.28
2018-02-09T10:22:27.122Z,50.53
2018-02-09T10:24:55.395Z,48.78
2018-02-09T10:27:23.664Z,52.33
2018-02-09T10:29:51.924Z,48.20
2018-02-09T10:32:20.197Z,47.97
2018-02-09T10:34:48.466Z,48.72
2018-02-09T10:37:16.738Z,47.35
2018-02-09T10:39:45.007Z,49.67
2018-02-09T10:42:14.043Z,47.90
2018-02-09T10:44:42.339Z,49.35
2018-02-09T10:47:10.610Z,51.75
2018-02-09T10:49:38.887Z,50.40
2018-02-09T10:52:07.163Z,49.35
2018-02-09T10:54:35.418Z,47.90
2018-02-09T10:57:03.693Z,49.08
2018-02-09T10:59:31.974Z,51.15
2018-02-09T11:02:00.237Z,47.97
2018-02-09T11:04:28.508Z,50.80
2018-02-09T11:06:56.774Z,51.05
2018-02-09T11:09:30.472Z,53.67
2018-02-09T11:12:01.768Z,55.93
2018-02-09T11:14:30.041Z,55.28
2018-02-09T11:16:58.321Z,59.28
2018-02-09T11:19:26.578Z,56.25
2018-02-09T11:21:54.897Z,57.72
2018-02-09T11:24:23.113Z,59.30
2018-02-09T11:26:51.383Z,60.33
2018-02-09T11:29:19.661Z,57.70
2018-02-09T11:31:47.932Z,58.33
2018-02-09T11:34:16.197Z,56.58
2018-02-09T11:36:44.471Z,60.60
2018-02-09T11:39:13.506Z,57.05
2018-02-09T11:41:41.770Z,55.97
2018-02-09T11:44:10.034Z,53.87
2018-02-09T11:46:38.301Z,58.05
2018-02-09T11:49:06.576Z,56.40
2018-02-09T11:51:34.848Z,51.70
2018-02-09T11:54:03.125Z,58.00
2018-02-09T11:56:32.160Z,56.15
2018-02-09T11:59:00.425Z,53.67
2018-02-09T12:01:28.700Z,54.22
2018-02-09T12:03:56.956Z,51.90
2018-02-09T12:06:25.233Z,49.88
2018-02-09T12:08:53.500Z,52.20
2018-02-09T12:11:21.775Z,53.87
2018-02-09T12:13:50.049Z,52.40
2018-02-09T12:16:19.091Z,54.13
2018-02-09T12:18:47.354Z,43.72
2018-02-09T12:21:15.629Z,49.80
2018-02-09T12:23:43.899Z,50.95
2018-02-09T12:26:12.174Z,50.90
2018-02-09T12:28:40.450Z,50.75
2018-02-09T12:31:08.734Z,49.83
2018-02-09T12:33:36.995Z,54.03
2018-02-09T12:36:05.278Z,39.47
2018-02-09T12:38:33.537Z,45.00
2018-02-09T12:41:01.846Z,53.00
2018-02-09T12:43:30.123Z,45.08
2018-02-09T12:45:58.383Z,41.22
2018-02-09T12:48:26.655Z,44.83
2018-02-09T12:50:54.921Z,52.38
2018-02-09T12:53:23.202Z,43.25
2018-02-09T12:55:51.462Z,50.70
2018-02-09T12:58:19.730Z,54.35
2018-02-09T13:00:48.042Z,47.92
2018-02-09T13:03:16.311Z,42.67
2018-02-09T13:05:44.567Z,50.47
2018-02-09T13:08:12.823Z,40.15
2018-02-09T13:10:41.874Z,44.28
2018-02-09T13:13:11.840Z,37.78
2018-02-09T13:15:40.861Z,44.13
2018-02-09T13:18:09.133Z,41.53
2018-02-09T13:20:37.391Z,45.60
2018-02-09T13:23:23.407Z,41.00
2018-02-09T13:25:51.662Z,38.22
2018-02-09T13:31:27.549Z,42.00
2018-02-09T13:33:55.822Z,44.25
2018-02-09T13:36:41.651Z,46.72
2018-02-09T13:39:09.923Z,44.58
2018-02-09T13:41:38.268Z,52.50
2018-02-09T13:44:06.456Z,43.10
2018-02-09T13:46:34.720Z,42.47
2018-02-09T13:49:02.977Z,51.40
2018-02-09T13:51:31.242Z,39.00
2018-02-09T13:54:00.311Z,40.05
2018-02-09T13:56:28.592Z,38.63
2018-02-09T13:58:56.847Z,39.70
2018-02-09T14:01:25.111Z,42.90
2018-02-09T14:03:53.361Z,39.67
2018-02-09T14:06:21.637Z,46.60
2018-02-09T14:08:50.131Z,43.20
2018-02-09T14:11:18.397Z,48.20
2018-02-09T14:13:46.651Z,40.05
2018-02-09T14:16:14.918Z,40.70
2018-02-09T14:18:43.933Z,48.03
2018-02-09T14:21:12.203Z,41.90
2018-02-09T14:23:40.449Z,40.67
2018-02-09T14:26:09.476Z,40.50
2018-02-09T14:28:37.741Z,52.38
2018-02-09T14:31:05.995Z,44.80
2018-02-09T14:33:35.018Z,43.60
2018-02-09T14:36:03.284Z,42.45
2018-02-09T14:38:32.297Z,44.88
2018-02-09T14:41:00.558Z,35.35
2018-02-09T14:43:28.810Z,45.95
2018-02-09T14:45:57.838Z,42.22
2018-02-09T14:48:26.102Z,40.28
2018-02-09T14:50:54.403Z,40.70
2018-02-09T14:53:22.649Z,39.63
2018-02-09T14:55:50.917Z,41.47
2018-02-09T14:58:19.945Z,37.75
2018-02-09T15:00:48.208Z,34.60
2018-02-09T15:03:16.493Z,34.72
2018-02-09T15:05:44.740Z,37.90
2018-02-09T15:08:13.776Z,38.60
2018-02-09T15:10:42.042Z,38.80
2018-02-09T15:13:10.309Z,32.92
2018-02-09T15:15:38.573Z,38.10
2018-02-09T15:18:07.596Z,33.67
2018-02-09T15:20:35.854Z,39.20
2018-02-09T15:23:04.121Z,45.15
2018-02-09T15:25:32.379Z,40.12
2018-02-09T15:28:01.414Z,41.75
2018-02-09T15:30:29.675Z,41.67
2018-02-09T15:32:57.965Z,36.50
2018-02-09T15:35:26.237Z,38.58
2018-02-09T15:37:54.493Z,39.13
2018-02-09T15:40:22.767Z,37.78
2018-02-09T15:42:51.017Z,38.85
2018-02-09T15:45:20.043Z,35.63
2018-02-09T15:47:48.306Z,25.98
2018-02-09T15:50:16.599Z,38.58
2018-02-09T15:52:44.858Z,43.45
2018-02-09T15:55:13.135Z,40.08
2018-02-09T15:57:41.451Z,38.42
2018-02-09T16:00:09.678Z,33.50
2018-02-09T16:02:38.699Z,32.03
2018-02-09T16:05:06.974Z,25.60
2018-02-09T16:07:35.243Z,33.40
2018-02-09T16:10:03.513Z,40.70
2018-02-09T16:12:31.779Z,35.70
2018-02-09T16:15:00.048Z,36.30
2018-02-09T16:17:29.066Z,38.00
2018-02-09T16:19:57.317Z,36.45
2018-02-09T16:22:26.346Z,33.90
2018-02-09T16:24:54.607Z,34.15
2018-02-09T16:27:22.875Z,34.20
2018-02-09T16:29:51.145Z,35.17
2018-02-09T16:32:19.405Z,32.53
2018-02-09T16:34:48.486Z,37.22
2018-02-09T16:37:16.740Z,39.58
2018-02-09T16:39:45.008Z,39.33
2018-02-09T16:42:13.262Z,35.03
2018-02-09T16:44:41.561Z,39.13
2018-02-09T16:47:09.826Z,36.30
2018-02-09T16:49:38.076Z,41.08
2018-02-09T16:52:06.341Z,40.35
2018-02-09T16:54:34.597Z,37.53
2018-02-09T16:57:02.854Z,36.42
2018-02-09T16:59:31.106Z,38.72
2018-02-09T17:01:59.374Z,37.42
2018-02-09T17:04:27.621Z,36.95
2018-02-09T17:06:55.885Z,37.72
2018-02-09T17:09:24.918Z,41.47
2018-02-09T17:11:53.196Z,38.25
2018-02-09T17:14:21.450Z,35.88
2018-02-09T17:16:49.764Z,38.15
2018-02-09T17:19:18.021Z,36.03
2018-02-09T17:21:46.999Z,37.50
2018-02-09T17:24:15.279Z,38.92
2018-02-09T17:26:43.532Z,37.60
2018-02-09T17:29:12.568Z,35.13
2018-02-09T17:31:40.814Z,34.92
2018-02-09T17:34:09.078Z,36.13
2018-02-09T17:36:37.334Z,30.48
2018-02-09T17:39:06.362Z,35.50
2018-02-09T17:41:34.631Z,30.73
2018-02-09T17:44:02.898Z,33.25
2018-02-09T17:46:31.959Z,41.10
2018-02-09T17:49:00.984Z,20.70
2018-02-09T17:51:30.016Z,32.13
2018-02-09T17:53:58.289Z,31.15
2018-02-09T17:56:26.550Z,35.03
2018-02-09T17:58:54.804Z,36.25
2018-02-09T18:01:23.840Z,36.53
2018-02-09T18:03:52.099Z,40.58
2018-02-09T18:06:20.357Z,39.30
2018-02-09T18:08:48.620Z,40.40
2018-02-09T18:11:17.661Z,39.25
2018-02-09T18:13:45.918Z,37.38
2018-02-09T18:16:14.183Z,40.17
2018-02-09T18:18:42.462Z,36.70
2018-02-09T18:21:10.727Z,39.90
2018-02-09T18:23:39.010Z,40.78
2018-02-09T18:26:07.271Z,41.42
2018-02-09T18:28:36.316Z,43.20
2018-02-09T18:31:04.578Z,47.40
2018-02-09T18:33:32.847Z,41.90
2018-02-09T18:36:01.121Z,44.00
2018-02-09T18:38:29.387Z,46.65
2018-02-09T18:40:57.652Z,46.08
2018-02-09T18:43:25.922Z,50.42
2018-02-09T18:45:54.974Z,39.05
2018-02-09T18:48:23.247Z,40.63
2018-02-09T18:50:51.512Z,43.10
2018-02-09T18:53:19.788Z,38.13
2018-02-09T18:55:48.071Z,38.40
2018-02-09T18:58:16.357Z,38.55
2018-02-09T19:00:44.622Z,38.28
2018-02-09T19:03:12.893Z,40.08
2018-02-09T19:05:41.932Z,38.67
2018-02-09T19:08:10.965Z,42.13
2018-02-09T19:10:39.225Z,36.17
2018-02-09T19:13:07.517Z,38.53
2018-02-09T19:15:35.776Z,36.83
2018-02-09T19:18:04.041Z,37.67
2018-02-09T19:20:32.318Z,35.97
2018-02-09T19:23:00.585Z,51.47
2018-02-09T19:25:29.632Z,43.35
2018-02-09T19:27:57.907Z,41.60
2018-02-09T19:30:26.184Z,43.70
2018-02-09T19:32:54.442Z,38.05
2018-02-09T19:35:22.720Z,37.53
2018-02-09T19:37:50.977Z,36.35
2018-02-09T19:40:19.251Z,42.67
2018-02-09T19:42:47.513Z,39.40
2018-02-09T19:45:16.553Z,37.80
2018-02-09T19:47:44.810Z,36.95
2018-02-09T19:50:13.069Z,38.05
2018-02-09T19:52:41.342Z,39.90
2018-02-09T19:55:09.609Z,40.12
2018-02-09T19:57:37.870Z,36.92
2018-02-09T20:00:06.913Z,34.10
2018-02-09T20:02:35.187Z,44.17
2018-02-09T20:05:03.455Z,37.85
2018-02-09T20:07:31.706Z,34.80
2018-02-09T20:10:00.751Z,39.20
2018-02-09T20:12:29.028Z,36.00
2018-02-09T20:14:57.285Z,38.70
2018-02-09T20:17:25.549Z,39.67
2018-02-09T20:19:53.827Z,38.33
2018-02-09T20:22:22.091Z,38.55
2018-02-09T20:24:50.371Z,38.38
2018-02-09T20:27:18.614Z,36.50
2018-02-09T20:29:47.638Z,37.75
2018-02-09T20:32:15.901Z,38.72
2018-02-09T20:34:44.162Z,37.47
2018-02-09T20:37:13.185Z,36.88
2018-02-09T20:39:41.501Z,36.08
2018-02-09T20:42:09.715Z,38.63
2018-02-09T20:44:38.745Z,37.30
2018-02-09T20:47:07.019Z,36.75
2018-02-09T20:49:35.277Z,37.83
2018-02-09T20:52:03.538Z,40.75
2018-02-09T20:54:32.595Z,40.95
2018-02-09T20:57:00.850Z,41.30
2018-02-09T20:59:29.105Z,40.65
2018-02-09T21:01:57.374Z,40.15
2018-02-09T21:04:25.641Z,37.13
2018-02-09T21:06:54.668Z,39.10
2018-02-09T21:09:22.933Z,39.67
2018-02-09T21:11:51.205Z,37.53
2018-02-09T21:14:19.466Z,41.42
2018-02-09T21:16:47.788Z,40.83
2018-02-09T21:19:16.055Z,41.58
2018-02-09T21:21:44.320Z,39.40
2018-02-09T21:24:12.587Z,40.12
2018-02-09T21:26:40.846Z,41.60
2018-02-09T21:29:09.109Z,40.17
2018-02-09T21:31:38.130Z,39.85
2018-02-09T21:34:06.404Z,40.05
2018-02-09T21:36:34.659Z,41.83
2018-02-09T21:39:02.917Z,38.83
2018-02-09T21:41:31.952Z,40.17
2018-02-09T21:44:00.224Z,38.38
2018-02-09T21:46:28.481Z,39.13
2018-02-09T21:48:56.742Z,38.33
2018-02-09T21:51:25.764Z,39.28
2018-02-09T21:53:54.036Z,40.10
2018-02-09T21:56:22.282Z,40.17
2018-02-09T21:58:52.233Z,35.95
2018-02-09T22:01:20.494Z,40.78
2018-02-09T22:03:49.522Z,40.17
2018-02-09T22:06:17.784Z,39.47
2018-02-09T22:08:46.050Z,41.92
2018-02-09T22:11:14.317Z,42.85
2018-02-09T22:13:42.682Z,39.55
2018-02-09T22:16:11.701Z,42.50
2018-02-09T22:18:39.964Z,40.90
2018-02-09T22:21:08.222Z,38.65
2018-02-09T22:23:37.307Z,41.40
2018-02-09T22:26:05.507Z,38.65
2018-02-09T22:28:33.779Z,38.85
2018-02-09T22:31:02.033Z,38.33
2018-02-09T22:33:31.052Z,42.13
2018-02-09T22:35:59.327Z,39.15
2018-02-09T22:38:27.578Z,43.53
2018-02-09T22:40:56.609Z,40.55
2018-02-09T22:43:24.870Z,41.92
2018-02-09T22:45:53.140Z,44.88
2018-02-09T22:48:25.498Z,39.25
2018-02-09T22:50:54.564Z,40.22
2018-02-09T22:53:22.813Z,39.75
2018-02-09T22:55:51.092Z,42.25
2018-02-09T22:58:19.357Z,40.17
2018-02-09T23:00:47.617Z,38.42
2018-02-09T23:03:15.882Z,38.95
2018-02-09T23:05:44.918Z,39.50
2018-02-09T23:08:13.947Z,37.28
2018-02-09T23:10:42.218Z,41.00
2018-02-09T23:13:10.484Z,40.38
2018-02-09T23:15:38.755Z,40.22
2018-02-09T23:18:07.016Z,40.28
2018-02-09T23:20:35.278Z,41.00
2018-02-09T23:23:03.538Z,40.42
2018-02-09T23:25:31.797Z,39.20
2018-02-09T23:28:00.068Z,41.05
2018-02-09T23:30:29.101Z,40.50
2018-02-09T23:32:57.349Z,39.58
2018-02-09T23:35:25.634Z,40.90
2018-02-09T23:37:53.895Z,39.10
2018-02-09T23:40:22.906Z,38.70
2018-02-09T23:42:51.175Z,38.28
2018-02-09T23:45:19.430Z,39.83
2018-02-09T23:47:48.461Z,39.88
2018-02-09T23:50:16.729Z,40.40
2018-02-09T23:52:45.121Z,42.50
2018-02-09T23:55:13.388Z,38.83
2018-02-09T23:57:41.663Z,40.58
